sensor_id;sensor_type;location;lat;lon;timestamp;P1;durP1;ratioP1;P2;durP2;ratioP2
36799;SDS011;22752;51.960;5.886;2023-08-01T00:00:04;5.95;;;5.07;;
36799;SDS011;22752;51.960;5.886;2023-08-01T00:02:32;7.68;;;5.30;;
36799;SDS011;22752;51.960;5.886;2023-08-01T00:04:57;9.45;;;5.25;;
36799;SDS011;22752;51.960;5.886;2023-08-01T00:07:23;7.85;;;6.20;;
36799;SDS011;22752;51.960;5.886;2023-08-01T00:09:51;9.80;;;5.25;;
36799;SDS011;22752;51.960;5.886;2023-08-01T00:12:16;7.63;;;5.82;;
36799;SDS011;22752;51.960;5.886;2023-08-01T00:14:42;7.70;;;5.13;;
36799;SDS011;22752;51.960;5.886;2023-08-01T00:17:08;10.00;;;5.88;;
36799;SDS011;22752;51.960;5.886;2023-08-01T00:19:33;11.10;;;6.18;;
36799;SDS011;22752;51.960;5.886;2023-08-01T00:21:59;7.72;;;5.45;;
36799;SDS011;22752;51.960;5.886;2023-08-01T00:24:25;9.55;;;6.53;;
36799;SDS011;22752;51.960;5.886;2023-08-01T00:26:50;10.18;;;5.88;;
36799;SDS011;22752;51.960;5.886;2023-08-01T00:29:20;7.15;;;5.65;;
36799;SDS011;22752;51.960;5.886;2023-08-01T00:31:45;6.38;;;5.25;;
36799;SDS011;22752;51.960;5.886;2023-08-01T00:34:11;7.22;;;5.13;;
36799;SDS011;22752;51.960;5.886;2023-08-01T00:36:37;7.13;;;5.32;;
36799;SDS011;22752;51.960;5.886;2023-08-01T00:39:02;7.88;;;5.43;;
36799;SDS011;22752;51.960;5.886;2023-08-01T00:41:28;8.40;;;4.93;;
36799;SDS011;22752;51.960;5.886;2023-08-01T00:43:53;8.00;;;3.60;;
36799;SDS011;22752;51.960;5.886;2023-08-01T00:46:19;8.25;;;4.03;;
36799;SDS011;22752;51.960;5.886;2023-08-01T00:48:45;6.65;;;3.83;;
36799;SDS011;22752;51.960;5.886;2023-08-01T00:51:11;10.30;;;3.90;;
36799;SDS011;22752;51.960;5.886;2023-08-01T00:53:38;7.20;;;3.75;;
36799;SDS011;22752;51.960;5.886;2023-08-01T00:56:04;7.10;;;3.50;;
36799;SDS011;22752;51.960;5.886;2023-08-01T00:58:30;8.60;;;3.65;;
36799;SDS011;22752;51.960;5.886;2023-08-01T01:00:55;8.63;;;3.60;;
36799;SDS011;22752;51.960;5.886;2023-08-01T01:03:22;5.75;;;2.97;;
36799;SDS011;22752;51.960;5.886;2023-08-01T01:06:01;5.63;;;3.05;;
36799;SDS011;22752;51.960;5.886;2023-08-01T01:08:32;5.53;;;3.20;;
36799;SDS011;22752;51.960;5.886;2023-08-01T01:10:57;4.40;;;2.72;;
36799;SDS011;22752;51.960;5.886;2023-08-01T01:13:23;6.03;;;2.65;;
36799;SDS011;22752;51.960;5.886;2023-08-01T01:15:49;8.50;;;3.30;;
36799;SDS011;22752;51.960;5.886;2023-08-01T01:18:14;7.18;;;3.20;;
36799;SDS011;22752;51.960;5.886;2023-08-01T01:20:40;6.63;;;3.28;;
36799;SDS011;22752;51.960;5.886;2023-08-01T01:23:05;6.95;;;3.70;;
36799;SDS011;22752;51.960;5.886;2023-08-01T01:25:33;7.45;;;3.80;;
36799;SDS011;22752;51.960;5.886;2023-08-01T01:27:59;5.45;;;3.83;;
36799;SDS011;22752;51.960;5.886;2023-08-01T01:30:30;8.48;;;4.15;;
36799;SDS011;22752;51.960;5.886;2023-08-01T01:32:58;7.00;;;4.00;;
36799;SDS011;22752;51.960;5.886;2023-08-01T01:35:25;6.10;;;3.72;;
36799;SDS011;22752;51.960;5.886;2023-08-01T01:37:50;7.53;;;3.90;;
36799;SDS011;22752;51.960;5.886;2023-08-01T01:40:16;7.40;;;3.92;;
36799;SDS011;22752;51.960;5.886;2023-08-01T01:42:42;5.05;;;3.75;;
36799;SDS011;22752;51.960;5.886;2023-08-01T01:45:07;6.05;;;3.97;;
36799;SDS011;22752;51.960;5.886;2023-08-01T01:47:33;7.30;;;4.55;;
36799;SDS011;22752;51.960;5.886;2023-08-01T01:49:59;6.05;;;4.70;;
36799;SDS011;22752;51.960;5.886;2023-08-01T01:52:24;6.70;;;4.32;;
36799;SDS011;22752;51.960;5.886;2023-08-01T01:54:50;7.15;;;4.32;;
36799;SDS011;22752;51.960;5.886;2023-08-01T01:57:16;9.20;;;4.53;;
36799;SDS011;22752;51.960;5.886;2023-08-01T01:59:41;9.23;;;4.88;;
36799;SDS011;22752;51.960;5.886;2023-08-01T02:02:07;7.28;;;4.35;;
36799;SDS011;22752;51.960;5.886;2023-08-01T02:04:33;7.22;;;4.32;;
36799;SDS011;22752;51.960;5.886;2023-08-01T02:06:58;9.50;;;5.03;;
36799;SDS011;22752;51.960;5.886;2023-08-01T02:09:24;8.27;;;4.20;;
36799;SDS011;22752;51.960;5.886;2023-08-01T02:11:50;7.30;;;4.78;;
36799;SDS011;22752;51.960;5.886;2023-08-01T02:14:15;10.18;;;4.93;;
36799;SDS011;22752;51.960;5.886;2023-08-01T02:16:41;10.32;;;4.97;;
36799;SDS011;22752;51.960;5.886;2023-08-01T02:19:06;8.65;;;5.30;;
36799;SDS011;22752;51.960;5.886;2023-08-01T02:21:32;8.70;;;4.93;;
36799;SDS011;22752;51.960;5.886;2023-08-01T02:23:58;9.18;;;5.28;;
36799;SDS011;22752;51.960;5.886;2023-08-01T02:26:23;11.75;;;5.05;;
36799;SDS011;22752;51.960;5.886;2023-08-01T02:28:49;7.63;;;4.78;;
36799;SDS011;22752;51.960;5.886;2023-08-01T02:31:15;10.48;;;5.38;;
36799;SDS011;22752;51.960;5.886;2023-08-01T02:33:41;11.38;;;6.15;;
36799;SDS011;22752;51.960;5.886;2023-08-01T02:36:07;11.63;;;6.30;;
36799;SDS011;22752;51.960;5.886;2023-08-01T02:38:33;10.15;;;5.63;;
36799;SDS011;22752;51.960;5.886;2023-08-01T02:40:59;15.57;;;6.65;;
36799;SDS011;22752;51.960;5.886;2023-08-01T02:43:24;15.50;;;6.70;;
36799;SDS011;22752;51.960;5.886;2023-08-01T02:45:50;16.83;;;6.72;;
36799;SDS011;22752;51.960;5.886;2023-08-01T02:48:16;10.63;;;6.40;;
36799;SDS011;22752;51.960;5.886;2023-08-01T02:50:41;14.40;;;6.82;;
36799;SDS011;22752;51.960;5.886;2023-08-01T02:53:07;14.50;;;6.07;;
36799;SDS011;22752;51.960;5.886;2023-08-01T02:55:33;9.95;;;6.10;;
36799;SDS011;22752;51.960;5.886;2023-08-01T02:57:59;12.32;;;6.15;;
36799;SDS011;22752;51.960;5.886;2023-08-01T03:00:24;20.38;;;7.63;;
36799;SDS011;22752;51.960;5.886;2023-08-01T03:02:50;13.40;;;6.90;;
36799;SDS011;22752;51.960;5.886;2023-08-01T03:05:16;10.45;;;6.10;;
36799;SDS011;22752;51.960;5.886;2023-08-01T03:07:42;11.13;;;6.35;;
36799;SDS011;22752;51.960;5.886;2023-08-01T03:10:08;11.13;;;6.00;;
36799;SDS011;22752;51.960;5.886;2023-08-01T03:12:36;14.82;;;7.22;;
36799;SDS011;22752;51.960;5.886;2023-08-01T03:15:02;21.05;;;7.40;;
36799;SDS011;22752;51.960;5.886;2023-08-01T03:17:28;11.75;;;5.90;;
36799;SDS011;22752;51.960;5.886;2023-08-01T03:19:53;14.30;;;7.10;;
36799;SDS011;22752;51.960;5.886;2023-08-01T03:22:19;15.40;;;6.78;;
36799;SDS011;22752;51.960;5.886;2023-08-01T03:24:45;13.93;;;6.40;;
36799;SDS011;22752;51.960;5.886;2023-08-01T03:27:11;15.60;;;6.90;;
36799;SDS011;22752;51.960;5.886;2023-08-01T03:29:36;17.52;;;7.18;;
36799;SDS011;22752;51.960;5.886;2023-08-01T03:32:03;14.30;;;6.70;;
36799;SDS011;22752;51.960;5.886;2023-08-01T03:34:29;14.50;;;7.38;;
36799;SDS011;22752;51.960;5.886;2023-08-01T03:36:55;12.20;;;6.53;;
36799;SDS011;22752;51.960;5.886;2023-08-01T03:39:21;14.98;;;6.95;;
36799;SDS011;22752;51.960;5.886;2023-08-01T03:41:46;19.35;;;6.97;;
36799;SDS011;22752;51.960;5.886;2023-08-01T03:44:12;17.98;;;7.65;;
36799;SDS011;22752;51.960;5.886;2023-08-01T03:46:38;16.20;;;6.90;;
36799;SDS011;22752;51.960;5.886;2023-08-01T03:49:03;17.65;;;8.00;;
36799;SDS011;22752;51.960;5.886;2023-08-01T03:51:29;16.95;;;6.70;;
36799;SDS011;22752;51.960;5.886;2023-08-01T03:53:54;18.17;;;6.78;;
36799;SDS011;22752;51.960;5.886;2023-08-01T03:56:20;18.35;;;6.90;;
36799;SDS011;22752;51.960;5.886;2023-08-01T03:58:46;14.07;;;6.13;;
36799;SDS011;22752;51.960;5.886;2023-08-01T04:01:12;13.55;;;6.38;;
36799;SDS011;22752;51.960;5.886;2023-08-01T04:03:38;17.25;;;6.55;;
36799;SDS011;22752;51.960;5.886;2023-08-01T04:06:03;15.80;;;6.80;;
36799;SDS011;22752;51.960;5.886;2023-08-01T04:08:29;18.98;;;6.85;;
36799;SDS011;22752;51.960;5.886;2023-08-01T04:10:55;18.27;;;6.70;;
36799;SDS011;22752;51.960;5.886;2023-08-01T04:13:20;15.60;;;7.43;;
36799;SDS011;22752;51.960;5.886;2023-08-01T04:15:46;14.02;;;6.47;;
36799;SDS011;22752;51.960;5.886;2023-08-01T04:18:12;17.55;;;6.90;;
36799;SDS011;22752;51.960;5.886;2023-08-01T04:20:38;17.33;;;6.88;;
36799;SDS011;22752;51.960;5.886;2023-08-01T04:23:03;18.83;;;6.60;;
36799;SDS011;22752;51.960;5.886;2023-08-01T04:25:29;17.13;;;7.25;;
36799;SDS011;22752;51.960;5.886;2023-08-01T04:27:55;14.10;;;6.40;;
36799;SDS011;22752;51.960;5.886;2023-08-01T04:30:20;19.52;;;7.80;;
36799;SDS011;22752;51.960;5.886;2023-08-01T04:32:46;15.23;;;6.88;;
36799;SDS011;22752;51.960;5.886;2023-08-01T04:35:12;18.02;;;6.82;;
36799;SDS011;22752;51.960;5.886;2023-08-01T04:37:37;24.70;;;7.80;;
36799;SDS011;22752;51.960;5.886;2023-08-01T04:40:03;19.15;;;6.88;;
36799;SDS011;22752;51.960;5.886;2023-08-01T04:42:29;20.23;;;7.88;;
36799;SDS011;22752;51.960;5.886;2023-08-01T04:44:55;22.67;;;7.18;;
36799;SDS011;22752;51.960;5.886;2023-08-01T04:47:21;15.90;;;6.70;;
36799;SDS011;22752;51.960;5.886;2023-08-01T04:49:46;22.02;;;7.53;;
36799;SDS011;22752;51.960;5.886;2023-08-01T04:52:12;17.60;;;7.60;;
36799;SDS011;22752;51.960;5.886;2023-08-01T04:54:38;19.33;;;7.57;;
36799;SDS011;22752;51.960;5.886;2023-08-01T04:57:04;17.20;;;6.47;;
36799;SDS011;22752;51.960;5.886;2023-08-01T04:59:30;21.23;;;8.27;;
36799;SDS011;22752;51.960;5.886;2023-08-01T05:01:55;20.63;;;7.68;;
36799;SDS011;22752;51.960;5.886;2023-08-01T05:04:21;16.02;;;6.15;;
36799;SDS011;22752;51.960;5.886;2023-08-01T05:06:47;19.13;;;7.22;;
36799;SDS011;22752;51.960;5.886;2023-08-01T05:09:12;18.08;;;6.72;;
36799;SDS011;22752;51.960;5.886;2023-08-01T05:11:38;20.13;;;7.30;;
36799;SDS011;22752;51.960;5.886;2023-08-01T05:14:03;13.98;;;6.25;;
36799;SDS011;22752;51.960;5.886;2023-08-01T05:16:29;20.88;;;6.88;;
36799;SDS011;22752;51.960;5.886;2023-08-01T05:18:55;14.07;;;6.47;;
36799;SDS011;22752;51.960;5.886;2023-08-01T05:21:21;15.00;;;6.00;;
36799;SDS011;22752;51.960;5.886;2023-08-01T05:23:46;15.93;;;6.07;;
36799;SDS011;22752;51.960;5.886;2023-08-01T05:26:12;15.32;;;6.25;;
36799;SDS011;22752;51.960;5.886;2023-08-01T05:28:38;16.45;;;6.65;;
36799;SDS011;22752;51.960;5.886;2023-08-01T05:31:03;16.75;;;6.57;;
36799;SDS011;22752;51.960;5.886;2023-08-01T05:33:29;16.98;;;6.65;;
36799;SDS011;22752;51.960;5.886;2023-08-01T05:35:54;15.93;;;6.93;;
36799;SDS011;22752;51.960;5.886;2023-08-01T05:38:20;15.98;;;7.25;;
36799;SDS011;22752;51.960;5.886;2023-08-01T05:40:46;17.40;;;8.00;;
36799;SDS011;22752;51.960;5.886;2023-08-01T05:43:11;16.10;;;7.22;;
36799;SDS011;22752;51.960;5.886;2023-08-01T05:45:37;14.45;;;6.93;;
36799;SDS011;22752;51.960;5.886;2023-08-01T05:48:03;17.48;;;7.65;;
36799;SDS011;22752;51.960;5.886;2023-08-01T05:50:29;16.70;;;7.22;;
36799;SDS011;22752;51.960;5.886;2023-08-01T05:52:55;16.77;;;7.25;;
36799;SDS011;22752;51.960;5.886;2023-08-01T05:55:20;14.15;;;7.00;;
36799;SDS011;22752;51.960;5.886;2023-08-01T05:57:46;16.17;;;6.50;;
36799;SDS011;22752;51.960;5.886;2023-08-01T06:00:14;18.10;;;7.35;;
36799;SDS011;22752;51.960;5.886;2023-08-01T06:02:40;15.38;;;6.72;;
36799;SDS011;22752;51.960;5.886;2023-08-01T06:05:06;16.38;;;7.78;;
36799;SDS011;22752;51.960;5.886;2023-08-01T06:07:32;16.80;;;6.97;;
36799;SDS011;22752;51.960;5.886;2023-08-01T06:09:57;12.88;;;7.47;;
36799;SDS011;22752;51.960;5.886;2023-08-01T06:12:23;16.27;;;6.97;;
36799;SDS011;22752;51.960;5.886;2023-08-01T06:14:49;18.08;;;6.78;;
36799;SDS011;22752;51.960;5.886;2023-08-01T06:17:14;14.25;;;6.32;;
36799;SDS011;22752;51.960;5.886;2023-08-01T06:19:40;15.77;;;7.18;;
36799;SDS011;22752;51.960;5.886;2023-08-01T06:22:06;15.63;;;6.55;;
36799;SDS011;22752;51.960;5.886;2023-08-01T06:24:33;16.52;;;6.13;;
36799;SDS011;22752;51.960;5.886;2023-08-01T06:26:59;16.15;;;6.80;;
36799;SDS011;22752;51.960;5.886;2023-08-01T06:29:24;14.55;;;7.13;;
36799;SDS011;22752;51.960;5.886;2023-08-01T06:31:50;15.50;;;6.72;;
36799;SDS011;22752;51.960;5.886;2023-08-01T06:34:15;16.20;;;6.25;;
36799;SDS011;22752;51.960;5.886;2023-08-01T06:36:41;11.85;;;5.70;;
36799;SDS011;22752;51.960;5.886;2023-08-01T06:39:07;17.40;;;6.60;;
36799;SDS011;22752;51.960;5.886;2023-08-01T06:41:33;22.08;;;6.72;;
36799;SDS011;22752;51.960;5.886;2023-08-01T06:43:58;26.50;;;6.75;;
36799;SDS011;22752;51.960;5.886;2023-08-01T06:46:24;14.55;;;5.05;;
36799;SDS011;22752;51.960;5.886;2023-08-01T06:48:50;18.85;;;5.43;;
36799;SDS011;22752;51.960;5.886;2023-08-01T06:51:15;13.43;;;5.30;;
36799;SDS011;22752;51.960;5.886;2023-08-01T06:53:41;13.48;;;5.30;;
36799;SDS011;22752;51.960;5.886;2023-08-01T06:56:07;13.20;;;5.93;;
36799;SDS011;22752;51.960;5.886;2023-08-01T06:58:33;13.80;;;5.38;;
36799;SDS011;22752;51.960;5.886;2023-08-01T07:00:58;13.73;;;4.95;;
36799;SDS011;22752;51.960;5.886;2023-08-01T07:03:24;13.15;;;4.88;;
36799;SDS011;22752;51.960;5.886;2023-08-01T07:05:50;12.40;;;5.32;;
36799;SDS011;22752;51.960;5.886;2023-08-01T07:08:16;11.70;;;4.55;;
36799;SDS011;22752;51.960;5.886;2023-08-01T07:10:41;10.98;;;4.78;;
36799;SDS011;22752;51.960;5.886;2023-08-01T07:13:07;15.77;;;5.53;;
36799;SDS011;22752;51.960;5.886;2023-08-01T07:15:33;12.45;;;5.03;;
36799;SDS011;22752;51.960;5.886;2023-08-01T07:17:59;11.00;;;4.53;;
36799;SDS011;22752;51.960;5.886;2023-08-01T07:20:25;12.63;;;4.93;;
36799;SDS011;22752;51.960;5.886;2023-08-01T07:22:50;17.10;;;4.70;;
36799;SDS011;22752;51.960;5.886;2023-08-01T07:25:16;14.88;;;4.75;;
36799;SDS011;22752;51.960;5.886;2023-08-01T07:27:44;14.85;;;4.95;;
36799;SDS011;22752;51.960;5.886;2023-08-01T07:30:09;10.63;;;3.95;;
36799;SDS011;22752;51.960;5.886;2023-08-01T07:32:36;9.40;;;4.10;;
36799;SDS011;22752;51.960;5.886;2023-08-01T07:35:05;10.73;;;3.88;;
36799;SDS011;22752;51.960;5.886;2023-08-01T07:37:32;8.85;;;3.53;;
36799;SDS011;22752;51.960;5.886;2023-08-01T07:39:58;9.35;;;3.10;;
36799;SDS011;22752;51.960;5.886;2023-08-01T07:42:24;11.07;;;3.72;;
36799;SDS011;22752;51.960;5.886;2023-08-01T07:44:50;8.48;;;3.15;;
36799;SDS011;22752;51.960;5.886;2023-08-01T07:47:16;8.88;;;3.20;;
36799;SDS011;22752;51.960;5.886;2023-08-01T07:49:41;8.82;;;3.17;;
36799;SDS011;22752;51.960;5.886;2023-08-01T07:52:07;9.13;;;3.55;;
36799;SDS011;22752;51.960;5.886;2023-08-01T07:54:32;12.73;;;3.80;;
36799;SDS011;22752;51.960;5.886;2023-08-01T07:56:58;8.90;;;3.05;;
36799;SDS011;22752;51.960;5.886;2023-08-01T07:59:24;7.97;;;2.80;;
36799;SDS011;22752;51.960;5.886;2023-08-01T08:01:49;11.65;;;3.47;;
36799;SDS011;22752;51.960;5.886;2023-08-01T08:04:15;8.88;;;3.50;;
36799;SDS011;22752;51.960;5.886;2023-08-01T08:06:40;11.88;;;3.40;;
36799;SDS011;22752;51.960;5.886;2023-08-01T08:09:06;8.90;;;3.28;;
36799;SDS011;22752;51.960;5.886;2023-08-01T08:11:32;9.40;;;2.70;;
36799;SDS011;22752;51.960;5.886;2023-08-01T08:13:58;9.57;;;3.33;;
36799;SDS011;22752;51.960;5.886;2023-08-01T08:16:24;8.63;;;2.83;;
36799;SDS011;22752;51.960;5.886;2023-08-01T08:18:50;7.65;;;3.08;;
36799;SDS011;22752;51.960;5.886;2023-08-01T08:21:16;9.60;;;3.20;;
36799;SDS011;22752;51.960;5.886;2023-08-01T08:23:41;10.52;;;3.38;;
36799;SDS011;22752;51.960;5.886;2023-08-01T08:26:07;11.85;;;3.95;;
36799;SDS011;22752;51.960;5.886;2023-08-01T08:28:33;10.85;;;3.55;;
36799;SDS011;22752;51.960;5.886;2023-08-01T08:30:59;9.85;;;3.25;;
36799;SDS011;22752;51.960;5.886;2023-08-01T08:33:27;8.90;;;3.33;;
36799;SDS011;22752;51.960;5.886;2023-08-01T08:35:53;12.55;;;3.60;;
36799;SDS011;22752;51.960;5.886;2023-08-01T08:38:19;10.48;;;3.03;;
36799;SDS011;22752;51.960;5.886;2023-08-01T08:40:48;9.02;;;3.17;;
36799;SDS011;22752;51.960;5.886;2023-08-01T08:43:26;13.25;;;3.85;;
36799;SDS011;22752;51.960;5.886;2023-08-01T08:45:53;9.35;;;3.38;;
36799;SDS011;22752;51.960;5.886;2023-08-01T08:48:22;10.40;;;3.33;;
36799;SDS011;22752;51.960;5.886;2023-08-01T08:50:50;10.32;;;3.55;;
36799;SDS011;22752;51.960;5.886;2023-08-01T08:53:16;8.95;;;3.00;;
36799;SDS011;22752;51.960;5.886;2023-08-01T08:55:43;10.02;;;3.03;;
36799;SDS011;22752;51.960;5.886;2023-08-01T08:58:09;5.75;;;2.30;;
36799;SDS011;22752;51.960;5.886;2023-08-01T09:00:35;6.20;;;2.90;;
36799;SDS011;22752;51.960;5.886;2023-08-01T09:03:02;9.63;;;2.55;;
36799;SDS011;22752;51.960;5.886;2023-08-01T09:05:33;8.32;;;3.05;;
36799;SDS011;22752;51.960;5.886;2023-08-01T09:08:06;6.70;;;2.65;;
36799;SDS011;22752;51.960;5.886;2023-08-01T09:10:36;9.93;;;2.55;;
36799;SDS011;22752;51.960;5.886;2023-08-01T09:13:01;7.78;;;2.58;;
36799;SDS011;22752;51.960;5.886;2023-08-01T09:15:27;8.98;;;2.03;;
36799;SDS011;22752;51.960;5.886;2023-08-01T09:17:54;5.55;;;2.17;;
36799;SDS011;22752;51.960;5.886;2023-08-01T09:20:26;7.60;;;2.67;;
36799;SDS011;22752;51.960;5.886;2023-08-01T09:22:52;10.40;;;2.20;;
36799;SDS011;22752;51.960;5.886;2023-08-01T09:25:18;6.18;;;2.20;;
36799;SDS011;22752;51.960;5.886;2023-08-01T09:27:44;9.00;;;2.20;;
36799;SDS011;22752;51.960;5.886;2023-08-01T09:30:10;7.38;;;2.25;;
36799;SDS011;22752;51.960;5.886;2023-08-01T09:32:40;6.55;;;2.17;;
36799;SDS011;22752;51.960;5.886;2023-08-01T09:35:15;5.90;;;1.77;;
36799;SDS011;22752;51.960;5.886;2023-08-01T09:37:41;4.45;;;1.55;;
36799;SDS011;22752;51.960;5.886;2023-08-01T09:40:11;5.38;;;1.80;;
36799;SDS011;22752;51.960;5.886;2023-08-01T09:42:37;4.80;;;1.77;;
36799;SDS011;22752;51.960;5.886;2023-08-01T09:45:16;4.45;;;1.85;;
36799;SDS011;22752;51.960;5.886;2023-08-01T09:47:43;7.20;;;1.95;;
36799;SDS011;22752;51.960;5.886;2023-08-01T09:50:11;5.15;;;1.80;;
36799;SDS011;22752;51.960;5.886;2023-08-01T09:52:44;6.45;;;2.00;;
36799;SDS011;22752;51.960;5.886;2023-08-01T09:55:17;6.57;;;2.33;;
36799;SDS011;22752;51.960;5.886;2023-08-01T09:57:46;8.40;;;2.20;;
36799;SDS011;22752;51.960;5.886;2023-08-01T10:00:15;5.82;;;2.10;;
36799;SDS011;22752;51.960;5.886;2023-08-01T10:02:41;6.72;;;2.20;;
36799;SDS011;22752;51.960;5.886;2023-08-01T10:05:09;6.38;;;2.55;;
36799;SDS011;22752;51.960;5.886;2023-08-01T10:07:36;7.68;;;2.60;;
36799;SDS011;22752;51.960;5.886;2023-08-01T10:10:06;4.07;;;1.77;;
36799;SDS011;22752;51.960;5.886;2023-08-01T10:12:32;4.35;;;1.90;;
36799;SDS011;22752;51.960;5.886;2023-08-01T10:14:58;4.88;;;2.10;;
36799;SDS011;22752;51.960;5.886;2023-08-01T10:17:25;7.85;;;2.60;;
36799;SDS011;22752;51.960;5.886;2023-08-01T10:19:51;4.82;;;2.00;;
36799;SDS011;22752;51.960;5.886;2023-08-01T10:22:18;9.25;;;2.40;;
36799;SDS011;22752;51.960;5.886;2023-08-01T10:24:45;9.95;;;2.35;;
36799;SDS011;22752;51.960;5.886;2023-08-01T10:27:15;7.43;;;2.30;;
36799;SDS011;22752;51.960;5.886;2023-08-01T10:29:44;10.38;;;2.80;;
36799;SDS011;22752;51.960;5.886;2023-08-01T10:32:20;5.15;;;2.00;;
36799;SDS011;22752;51.960;5.886;2023-08-01T10:34:59;4.70;;;1.70;;
36799;SDS011;22752;51.960;5.886;2023-08-01T10:37:26;7.20;;;2.17;;
36799;SDS011;22752;51.960;5.886;2023-08-01T10:40:01;8.15;;;2.30;;
36799;SDS011;22752;51.960;5.886;2023-08-01T10:42:37;6.32;;;1.90;;
36799;SDS011;22752;51.960;5.886;2023-08-01T10:45:06;6.03;;;1.80;;
36799;SDS011;22752;51.960;5.886;2023-08-01T10:47:33;6.25;;;2.10;;
36799;SDS011;22752;51.960;5.886;2023-08-01T10:49:58;4.75;;;2.45;;
36799;SDS011;22752;51.960;5.886;2023-08-01T10:52:25;5.78;;;2.15;;
36799;SDS011;22752;51.960;5.886;2023-08-01T10:55:03;5.15;;;1.95;;
36799;SDS011;22752;51.960;5.886;2023-08-01T10:57:31;7.30;;;2.63;;
36799;SDS011;22752;51.960;5.886;2023-08-01T10:59:59;5.60;;;2.10;;
36799;SDS011;22752;51.960;5.886;2023-08-01T11:02:26;10.77;;;2.53;;
36799;SDS011;22752;51.960;5.886;2023-08-01T11:07:21;5.85;;;2.25;;
36799;SDS011;22752;51.960;5.886;2023-08-01T11:09:47;7.40;;;2.60;;
36799;SDS011;22752;51.960;5.886;2023-08-01T11:12:13;9.82;;;2.45;;
36799;SDS011;22752;51.960;5.886;2023-08-01T11:14:38;6.38;;;2.20;;
36799;SDS011;22752;51.960;5.886;2023-08-01T11:17:04;5.15;;;1.90;;
36799;SDS011;22752;51.960;5.886;2023-08-01T11:19:30;10.48;;;2.22;;
36799;SDS011;22752;51.960;5.886;2023-08-01T11:21:56;7.95;;;2.30;;
36799;SDS011;22752;51.960;5.886;2023-08-01T11:24:23;8.73;;;2.17;;
36799;SDS011;22752;51.960;5.886;2023-08-01T11:26:50;6.38;;;2.20;;
36799;SDS011;22752;51.960;5.886;2023-08-01T11:29:18;4.43;;;2.05;;
36799;SDS011;22752;51.960;5.886;2023-08-01T11:31:54;4.88;;;1.92;;
36799;SDS011;22752;51.960;5.886;2023-08-01T11:34:21;10.10;;;2.45;;
36799;SDS011;22752;51.960;5.886;2023-08-01T11:36:47;8.38;;;2.35;;
36799;SDS011;22752;51.960;5.886;2023-08-01T11:39:13;7.90;;;2.58;;
36799;SDS011;22752;51.960;5.886;2023-08-01T11:41:41;8.10;;;2.47;;
36799;SDS011;22752;51.960;5.886;2023-08-01T11:44:07;6.57;;;2.20;;
36799;SDS011;22752;51.960;5.886;2023-08-01T11:46:36;5.90;;;2.40;;
36799;SDS011;22752;51.960;5.886;2023-08-01T11:49:02;9.57;;;2.08;;
36799;SDS011;22752;51.960;5.886;2023-08-01T11:51:29;5.05;;;2.03;;
36799;SDS011;22752;51.960;5.886;2023-08-01T11:54:02;8.15;;;2.13;;
36799;SDS011;22752;51.960;5.886;2023-08-01T11:56:29;5.22;;;2.13;;
36799;SDS011;22752;51.960;5.886;2023-08-01T11:58:58;5.35;;;1.73;;
36799;SDS011;22752;51.960;5.886;2023-08-01T12:01:24;9.50;;;2.30;;
36799;SDS011;22752;51.960;5.886;2023-08-01T12:03:51;4.65;;;1.67;;
36799;SDS011;22752;51.960;5.886;2023-08-01T12:06:19;5.13;;;1.67;;
36799;SDS011;22752;51.960;5.886;2023-08-01T12:08:47;4.65;;;1.75;;
36799;SDS011;22752;51.960;5.886;2023-08-01T12:11:20;4.13;;;1.65;;
36799;SDS011;22752;51.960;5.886;2023-08-01T12:13:46;4.60;;;1.67;;
36799;SDS011;22752;51.960;5.886;2023-08-01T12:16:13;3.92;;;1.58;;
36799;SDS011;22752;51.960;5.886;2023-08-01T12:18:45;6.13;;;1.80;;
36799;SDS011;22752;51.960;5.886;2023-08-01T12:21:12;8.48;;;1.98;;
36799;SDS011;22752;51.960;5.886;2023-08-01T12:23:38;4.70;;;1.73;;
36799;SDS011;22752;51.960;5.886;2023-08-01T12:26:05;4.63;;;1.50;;
36799;SDS011;22752;51.960;5.886;2023-08-01T12:28:32;4.20;;;1.80;;
36799;SDS011;22752;51.960;5.886;2023-08-01T12:30:57;4.00;;;1.63;;
36799;SDS011;22752;51.960;5.886;2023-08-01T12:33:23;4.80;;;1.70;;
36799;SDS011;22752;51.960;5.886;2023-08-01T12:35:50;5.40;;;2.03;;
36799;SDS011;22752;51.960;5.886;2023-08-01T12:38:15;6.22;;;2.03;;
36799;SDS011;22752;51.960;5.886;2023-08-01T12:40:41;5.75;;;1.70;;
36799;SDS011;22752;51.960;5.886;2023-08-01T12:43:07;8.02;;;2.15;;
36799;SDS011;22752;51.960;5.886;2023-08-01T12:45:32;9.85;;;2.00;;
36799;SDS011;22752;51.960;5.886;2023-08-01T12:47:58;6.47;;;1.90;;
36799;SDS011;22752;51.960;5.886;2023-08-01T12:50:23;8.38;;;2.30;;
36799;SDS011;22752;51.960;5.886;2023-08-01T12:52:49;8.40;;;2.78;;
36799;SDS011;22752;51.960;5.886;2023-08-01T12:55:15;7.85;;;2.30;;
36799;SDS011;22752;51.960;5.886;2023-08-01T12:57:41;8.48;;;2.20;;
36799;SDS011;22752;51.960;5.886;2023-08-01T13:00:07;5.28;;;1.88;;
36799;SDS011;22752;51.960;5.886;2023-08-01T13:02:35;6.70;;;2.38;;
36799;SDS011;22752;51.960;5.886;2023-08-01T13:05:02;8.35;;;2.30;;
36799;SDS011;22752;51.960;5.886;2023-08-01T13:07:28;6.03;;;2.28;;
36799;SDS011;22752;51.960;5.886;2023-08-01T13:09:56;7.22;;;2.08;;
36799;SDS011;22752;51.960;5.886;2023-08-01T13:12:22;5.35;;;2.20;;
36799;SDS011;22752;51.960;5.886;2023-08-01T13:14:47;9.38;;;2.40;;
36799;SDS011;22752;51.960;5.886;2023-08-01T13:17:13;7.53;;;2.42;;
36799;SDS011;22752;51.960;5.886;2023-08-01T13:19:38;7.45;;;2.33;;
36799;SDS011;22752;51.960;5.886;2023-08-01T13:22:04;6.65;;;2.25;;
36799;SDS011;22752;51.960;5.886;2023-08-01T13:24:30;13.98;;;2.20;;
36799;SDS011;22752;51.960;5.886;2023-08-01T13:26:56;5.80;;;2.25;;
36799;SDS011;22752;51.960;5.886;2023-08-01T13:29:22;7.80;;;2.35;;
36799;SDS011;22752;51.960;5.886;2023-08-01T13:31:47;7.70;;;2.60;;
36799;SDS011;22752;51.960;5.886;2023-08-01T13:34:13;10.70;;;2.63;;
36799;SDS011;22752;51.960;5.886;2023-08-01T13:36:39;10.25;;;2.58;;
36799;SDS011;22752;51.960;5.886;2023-08-01T13:39:04;9.23;;;2.53;;
36799;SDS011;22752;51.960;5.886;2023-08-01T13:41:31;8.80;;;2.42;;
36799;SDS011;22752;51.960;5.886;2023-08-01T13:43:58;6.28;;;2.20;;
36799;SDS011;22752;51.960;5.886;2023-08-01T13:46:24;5.75;;;1.90;;
36799;SDS011;22752;51.960;5.886;2023-08-01T13:48:49;6.53;;;2.00;;
36799;SDS011;22752;51.960;5.886;2023-08-01T13:51:15;7.22;;;2.40;;
36799;SDS011;22752;51.960;5.886;2023-08-01T13:53:41;7.90;;;2.15;;
36799;SDS011;22752;51.960;5.886;2023-08-01T13:56:07;4.28;;;1.90;;
36799;SDS011;22752;51.960;5.886;2023-08-01T13:58:39;7.72;;;1.80;;
36799;SDS011;22752;51.960;5.886;2023-08-01T14:01:06;5.65;;;1.80;;
36799;SDS011;22752;51.960;5.886;2023-08-01T14:03:33;5.35;;;2.20;;
36799;SDS011;22752;51.960;5.886;2023-08-01T14:06:06;6.97;;;2.10;;
36799;SDS011;22752;51.960;5.886;2023-08-01T14:08:32;6.05;;;1.77;;
36799;SDS011;22752;51.960;5.886;2023-08-01T14:10:58;7.57;;;1.65;;
36799;SDS011;22752;51.960;5.886;2023-08-01T14:13:24;6.88;;;1.67;;
36799;SDS011;22752;51.960;5.886;2023-08-01T14:15:50;5.20;;;1.92;;
36799;SDS011;22752;51.960;5.886;2023-08-01T14:18:16;6.90;;;1.75;;
36799;SDS011;22752;51.960;5.886;2023-08-01T14:20:42;6.82;;;2.00;;
36799;SDS011;22752;51.960;5.886;2023-08-01T14:23:08;7.75;;;1.90;;
36799;SDS011;22752;51.960;5.886;2023-08-01T14:25:34;5.97;;;1.75;;
36799;SDS011;22752;51.960;5.886;2023-08-01T14:28:00;6.72;;;1.77;;
36799;SDS011;22752;51.960;5.886;2023-08-01T14:30:25;4.25;;;1.63;;
36799;SDS011;22752;51.960;5.886;2023-08-01T14:32:58;5.40;;;1.77;;
36799;SDS011;22752;51.960;5.886;2023-08-01T14:35:24;5.30;;;1.50;;
36799;SDS011;22752;51.960;5.886;2023-08-01T14:37:50;6.38;;;1.77;;
36799;SDS011;22752;51.960;5.886;2023-08-01T14:40:16;5.55;;;1.63;;